Vallscreek, West Virginia
Current Conditions -  °F | °C
As of 10:55 AM on Friday 28 Nov 2014 (Local Time) from KJFZ Reporting Station
Overcast Overcast  
Wind Chill: 27°   Ceiling: 2000
Heat Index: 27°   Visibility: 10mi
Dew Point: 18°   Wind: 3mph
Humidity: 68%   Direction: 280°W
Pressure: 30.31"   Gusts: NA
Location:  37.2686°N, 81.6669°W
Report Text: KJFZ 281555Z AUTO 28003KT 10SM OVC020 M03/M08 A3031 RMK AO2 T10271078
Loading
Personal Weather Stations






























Interactive Weather Map New forecast layout! Learn more

10-Day Weather Forecast

Advertisements
Track Severe Weather on mobile